Time;durP1;ratioP1;P1;durP2;ratioP2;P2;SDS_P1;SDS_P2;PMS_P1;PMS_P2;Temp;Humidity;BMP_temperature;BMP_pressure;BME280_temperature;BME280_humidity;BME280_pressure;Samples;Min_cycle;Max_cycle;Signal;HPM_P1;HPM_P2
2023/05/16 00:01:09;;;;;;;16.60;9.93;;;10.90;99.90;;;;;;5080723;28;20198;-79
2023/05/16 00:03:38;;;;;;;16.03;10.40;;;10.90;99.90;;;;;;5081140;28;20225;-77
2023/05/16 00:06:05;;;;;;;15.20;9.73;;;10.70;99.90;;;;;;5081785;28;20274;-77
2023/05/16 00:08:31;;;;;;;16.07;10.07;;;10.90;99.90;;;;;;5081568;28;20213;-78
2023/05/16 00:10:58;;;;;;;16.80;10.10;;;10.80;99.90;;;;;;5081702;28;20202;-77
2023/05/16 00:13:25;;;;;;;15.63;9.23;;;10.90;99.90;;;;;;5081331;28;20222;-77
2023/05/16 00:15:53;;;;;;;18.00;10.30;;;11.00;99.90;;;;;;5082592;28;20212;-79
2023/05/16 00:18:21;;;;;;;15.63;9.37;;;11.00;99.90;;;;;;5080831;28;20206;-77
2023/05/16 00:20:49;;;;;;;15.73;8.37;;;11.00;99.90;;;;;;5080420;28;20217;-78
2023/05/16 00:23:16;;;;;;;14.40;8.50;;;11.10;99.90;;;;;;5080129;28;20230;-79
2023/05/16 00:25:43;;;;;;;14.50;8.60;;;10.90;99.90;;;;;;5079895;28;20198;-78
2023/05/16 00:28:10;;;;;;;14.17;8.57;;;10.80;99.90;;;;;;5080703;28;20208;-77
2023/05/16 00:30:36;;;;;;;13.93;8.73;;;10.90;99.90;;;;;;5080321;28;20220;-78
2023/05/16 00:33:03;;;;;;;11.60;7.63;;;10.80;99.90;;;;;;5080479;28;20219;-76
2023/05/16 00:35:30;;;;;;;14.20;7.73;;;10.80;99.90;;;;;;5079634;28;20206;-78
2023/05/16 00:37:58;;;;;;;11.47;7.30;;;10.80;99.90;;;;;;5082736;28;20293;-76
2023/05/16 00:40:25;;;;;;;10.27;6.63;;;10.90;99.90;;;;;;5100630;28;20217;-76
2023/05/16 00:42:52;;;;;;;13.30;6.93;;;10.90;99.90;;;;;;5101566;28;20691;-77
2023/05/16 00:45:19;;;;;;;15.53;8.23;;;10.90;99.90;;;;;;5100924;28;20208;-77
2023/05/16 00:47:45;;;;;;;12.73;7.30;;;10.80;99.90;;;;;;5101657;28;20201;-78
2023/05/16 00:50:12;;;;;;;14.00;8.30;;;10.80;99.90;;;;;;5096653;28;20198;-76
2023/05/16 00:52:39;;;;;;;13.73;8.20;;;10.80;99.90;;;;;;5099481;28;20232;-77
2023/05/16 00:55:10;;;;;;;15.00;9.13;;;10.80;99.90;;;;;;5103623;28;20269;-79
2023/05/16 00:57:37;;;;;;;15.73;9.03;;;10.80;99.90;;;;;;5099415;28;20206;-76
2023/05/16 01:00:05;;;;;;;12.20;8.00;;;10.80;99.90;;;;;;5099185;28;20221;-76
2023/05/16 01:02:34;;;;;;;16.90;9.40;;;10.80;99.90;;;;;;5099835;28;20232;-78
2023/05/16 01:05:01;;;;;;;13.40;8.47;;;10.80;99.90;;;;;;5104868;28;20659;-78
2023/05/16 01:07:28;;;;;;;16.10;8.43;;;10.80;99.90;;;;;;5102656;28;20251;-78
2023/05/16 01:09:55;;;;;;;13.67;8.27;;;10.80;99.90;;;;;;5101483;28;20201;-76
2023/05/16 01:12:29;;;;;;;14.27;7.90;;;10.70;99.90;;;;;;5103917;28;20216;-78
2023/05/16 01:15:04;;;;;;;12.90;8.50;;;10.70;99.90;;;;;;5104245;28;20192;-78
2023/05/16 01:17:38;;;;;;;12.70;6.83;;;10.70;99.90;;;;;;5101080;28;20185;-76
2023/05/16 01:20:14;;;;;;;11.53;7.60;;;10.80;99.90;;;;;;5102974;28;20225;-78
2023/05/16 01:22:52;;;;;;;11.63;7.33;;;10.80;99.90;;;;;;5104286;28;20221;-77
2023/05/16 01:25:31;;;;;;;11.83;6.43;;;10.70;99.90;;;;;;5104597;28;20212;-78
2023/05/16 01:28:01;;;;;;;7.97;5.60;;;10.80;99.90;;;;;;5099830;28;20651;-78
2023/05/16 01:30:32;;;;;;;9.97;6.07;;;11.00;99.90;;;;;;5102960;28;20209;-76
2023/05/16 01:32:58;;;;;;;8.10;6.00;;;10.80;99.90;;;;;;5102950;28;20315;-78
2023/05/16 01:35:25;;;;;;;8.20;5.80;;;10.80;99.90;;;;;;5104173;28;20265;-79
2023/05/16 01:37:59;;;;;;;8.83;5.63;;;10.90;99.90;;;;;;5103588;28;20296;-77
2023/05/16 01:40:33;;;;;;;8.10;5.40;;;11.00;99.90;;;;;;5103609;28;20226;-77
2023/05/16 01:43:08;;;;;;;10.40;6.33;;;11.00;99.90;;;;;;5099960;28;20217;-78
2023/05/16 01:45:39;;;;;;;9.30;6.03;;;10.90;99.90;;;;;;5097833;28;20212;-78
2023/05/16 01:48:10;;;;;;;14.13;7.07;;;10.80;99.90;;;;;;5098911;28;20212;-75
2023/05/16 01:50:51;;;;;;;9.83;6.87;;;10.80;99.90;;;;;;5097303;28;20255;-76
2023/05/16 01:53:25;;;;;;;13.07;7.10;;;10.80;99.90;;;;;;5084716;28;20216;-78
2023/05/16 01:55:55;;;;;;;11.83;7.60;;;10.90;99.90;;;;;;5101891;28;20235;-78
2023/05/16 01:58:27;;;;;;;10.63;7.23;;;10.80;99.90;;;;;;5101558;28;20189;-78
2023/05/16 02:00:54;;;;;;;10.80;7.40;;;10.70;99.90;;;;;;5102021;28;20210;-78
2023/05/16 02:03:21;;;;;;;14.33;7.17;;;10.70;99.90;;;;;;5102799;28;20715;-76
2023/05/16 02:05:48;;;;;;;12.73;6.90;;;10.80;99.90;;;;;;5103015;28;20626;-76
2023/05/16 02:08:15;;;;;;;10.30;7.57;;;10.70;99.90;;;;;;5103179;28;20197;-77
2023/05/16 02:10:42;;;;;;;11.43;8.00;;;10.80;99.90;;;;;;5081849;28;20220;-78
2023/05/16 02:13:09;;;;;;;12.70;8.03;;;10.70;99.90;;;;;;5102750;28;20221;-78
2023/05/16 02:15:37;;;;;;;13.47;8.40;;;10.60;99.90;;;;;;5101624;28;20212;-78
2023/05/16 02:18:08;;;;;;;12.40;8.47;;;10.80;99.90;;;;;;5102589;28;20206;-76
2023/05/16 02:20:36;;;;;;;14.13;7.93;;;10.80;99.90;;;;;;5103244;28;20253;-76
2023/05/16 02:23:03;;;;;;;12.20;8.17;;;10.90;99.90;;;;;;5102566;28;20228;-78
2023/05/16 02:25:30;;;;;;;14.57;8.53;;;10.80;99.90;;;;;;5100968;28;20258;-78
2023/05/16 02:27:56;;;;;;;14.23;8.20;;;10.90;99.90;;;;;;5103090;28;20212;-78
2023/05/16 02:30:23;;;;;;;12.50;8.33;;;11.00;99.90;;;;;;5102095;28;20198;-78
2023/05/16 02:32:52;;;;;;;16.03;8.60;;;11.00;99.90;;;;;;5103522;28;20294;-76
2023/05/16 02:35:19;;;;;;;10.80;7.67;;;10.90;99.90;;;;;;5104015;28;20624;-77
2023/05/16 02:37:46;;;;;;;9.67;6.57;;;10.90;99.90;;;;;;5101124;28;20220;-78
2023/05/16 02:40:14;;;;;;;11.50;6.60;;;10.80;99.90;;;;;;5101840;28;20222;-76
2023/05/16 02:42:40;;;;;;;15.40;7.07;;;10.90;99.90;;;;;;5102877;28;20722;-76
2023/05/16 02:45:08;;;;;;;10.93;6.67;;;10.90;99.90;;;;;;5103229;28;20201;-77
2023/05/16 02:47:35;;;;;;;10.90;6.43;;;10.80;99.90;;;;;;5103120;28;20202;-77
2023/05/16 02:50:05;;;;;;;10.77;6.50;;;10.80;99.90;;;;;;5103819;28;20198;-78
2023/05/16 02:52:31;;;;;;;8.33;5.47;;;10.80;99.90;;;;;;5103809;28;20239;-78
2023/05/16 02:54:58;;;;;;;10.10;5.17;;;10.80;99.90;;;;;;5102484;28;20208;-78
2023/05/16 02:57:25;;;;;;;7.77;5.33;;;10.80;99.90;;;;;;5102447;28;20201;-76
2023/05/16 02:59:52;;;;;;;8.87;5.33;;;10.90;99.90;;;;;;5100623;28;20218;-78
2023/05/16 03:02:20;;;;;;;6.80;4.73;;;10.80;99.90;;;;;;5101565;28;20265;-79
2023/05/16 03:04:47;;;;;;;7.17;4.63;;;10.80;99.90;;;;;;5101157;28;20194;-77
2023/05/16 03:07:15;;;;;;;7.60;4.77;;;10.70;99.90;;;;;;5097772;28;20269;-78
2023/05/16 03:09:42;;;;;;;6.70;3.83;;;10.80;99.90;;;;;;5096999;28;20280;-79
2023/05/16 03:12:09;;;;;;;6.67;4.17;;;10.60;99.90;;;;;;5099420;28;20204;-79
2023/05/16 03:14:36;;;;;;;8.63;4.33;;;10.60;99.90;;;;;;5101000;28;20292;-77
2023/05/16 03:17:03;;;;;;;10.03;4.13;;;10.60;99.90;;;;;;5099947;28;20202;-77
2023/05/16 03:19:30;;;;;;;8.67;4.50;;;10.70;99.90;;;;;;5098074;28;20226;-76
2023/05/16 03:21:57;;;;;;;5.77;4.10;;;10.60;99.90;;;;;;5098966;28;20224;-77
2023/05/16 03:24:25;;;;;;;6.13;3.70;;;10.70;99.90;;;;;;5100750;28;20221;-77
2023/05/16 03:26:52;;;;;;;7.77;3.20;;;10.70;99.90;;;;;;5100855;28;20224;-78
2023/05/16 03:29:19;;;;;;;7.07;2.60;;;10.60;99.90;;;;;;5101664;28;20330;-78
2023/05/16 03:31:45;;;;;;;7.73;2.93;;;10.50;99.90;;;;;;5098967;28;20237;-78
2023/05/16 03:34:12;;;;;;;7.47;3.00;;;10.40;99.90;;;;;;5100617;28;20734;-77
2023/05/16 03:36:39;;;;;;;3.57;2.50;;;10.30;99.90;;;;;;5102256;28;20269;-77
2023/05/16 03:39:07;;;;;;;5.93;2.50;;;10.30;99.90;;;;;;5099697;28;20674;-79
2023/05/16 03:41:35;;;;;;;5.57;2.70;;;10.40;99.90;;;;;;5098850;28;20324;-78
2023/05/16 03:44:02;;;;;;;3.60;2.47;;;10.20;99.90;;;;;;5080054;28;20293;-78
2023/05/16 03:46:29;;;;;;;5.23;2.80;;;10.20;99.90;;;;;;5079189;28;20209;-77
2023/05/16 03:48:56;;;;;;;7.27;3.07;;;10.20;99.90;;;;;;5079533;28;20210;-77
2023/05/16 03:51:22;;;;;;;5.03;2.70;;;10.20;99.90;;;;;;5078470;28;20288;-79
2023/05/16 03:53:49;;;;;;;5.20;2.90;;;10.20;99.90;;;;;;5077411;28;20226;-78
2023/05/16 03:56:16;;;;;;;12.37;3.23;;;10.30;99.90;;;;;;5078192;28;20211;-79
2023/05/16 03:58:44;;;;;;;5.90;3.23;;;10.20;99.90;;;;;;5079467;28;20241;-78
2023/05/16 04:01:11;;;;;;;7.73;3.53;;;10.20;99.90;;;;;;5078890;28;20218;-79
2023/05/16 04:03:38;;;;;;;7.80;3.27;;;10.20;99.90;;;;;;5078521;28;20232;-77
2023/05/16 04:06:06;;;;;;;5.87;3.30;;;10.20;99.90;;;;;;5077739;28;20216;-78
2023/05/16 04:08:33;;;;;;;5.63;3.43;;;10.00;99.90;;;;;;5077141;28;20285;-78
2023/05/16 04:11:00;;;;;;;7.53;2.83;;;9.90;99.90;;;;;;5094051;28;20198;-77
2023/05/16 04:13:27;;;;;;;7.07;3.30;;;9.80;99.90;;;;;;5097952;28;20590;-77
2023/05/16 04:15:55;;;;;;;6.43;3.33;;;10.00;99.90;;;;;;5098169;28;20370;-78
2023/05/16 04:18:22;;;;;;;9.97;3.33;;;10.00;99.90;;;;;;5091987;28;20204;-77
2023/05/16 04:20:49;;;;;;;6.43;3.40;;;9.90;99.90;;;;;;5099731;28;20221;-76
2023/05/16 04:23:16;;;;;;;7.13;2.80;;;10.00;99.90;;;;;;5099748;28;20281;-78
2023/05/16 04:25:42;;;;;;;10.67;2.73;;;10.00;99.90;;;;;;5078754;28;20230;-76
2023/05/16 04:28:09;;;;;;;7.00;3.10;;;10.10;99.90;;;;;;5078509;28;20260;-77
2023/05/16 04:30:37;;;;;;;9.27;3.07;;;10.00;99.90;;;;;;5079023;28;20265;-79
2023/05/16 04:33:06;;;;;;;4.93;3.53;;;10.10;99.90;;;;;;5079105;28;20226;-78
2023/05/16 04:35:33;;;;;;;13.63;4.63;;;10.20;99.90;;;;;;5079135;28;20206;-77
2023/05/16 04:37:59;;;;;;;11.13;3.33;;;10.10;99.90;;;;;;5088012;28;20220;-76
2023/05/16 04:40:26;;;;;;;6.37;3.07;;;10.10;99.90;;;;;;5099711;28;20218;-78
2023/05/16 04:42:54;;;;;;;8.47;3.33;;;10.30;99.90;;;;;;5098957;28;20222;-77
2023/05/16 04:45:21;;;;;;;9.27;3.00;;;10.20;99.90;;;;;;5099326;28;20573;-79
2023/05/16 04:47:48;;;;;;;7.37;3.20;;;10.10;99.90;;;;;;5099028;28;20210;-79
2023/05/16 04:50:17;;;;;;;6.27;3.00;;;10.30;99.90;;;;;;5099360;28;20201;-79
2023/05/16 04:52:43;;;;;;;9.40;3.43;;;10.20;99.90;;;;;;5099112;28;20229;-78
2023/05/16 04:55:11;;;;;;;7.63;3.40;;;10.30;99.90;;;;;;5085972;28;20202;-76
2023/05/16 04:57:38;;;;;;;7.10;3.50;;;10.40;99.90;;;;;;5079248;28;20331;-78
2023/05/16 05:00:09;;;;;;;5.10;2.60;;;10.30;99.90;;;;;;5088043;28;20222;-77
2023/05/16 05:02:36;;;;;;;6.73;3.03;;;10.30;99.90;;;;;;5099640;28;20222;-77
2023/05/16 05:05:03;;;;;;;11.10;3.73;;;10.20;99.90;;;;;;5099987;28;20209;-76
2023/05/16 05:07:32;;;;;;;8.70;2.93;;;10.30;99.90;;;;;;5079611;28;20202;-77
2023/05/16 05:09:59;;;;;;;10.43;2.80;;;10.20;99.90;;;;;;5090008;28;20208;-78
2023/05/16 05:12:26;;;;;;;9.20;2.50;;;10.20;99.90;;;;;;5097721;28;20273;-77
2023/05/16 05:14:53;;;;;;;11.80;3.27;;;10.20;99.90;;;;;;5098034;28;20201;-77
2023/05/16 05:17:20;;;;;;;10.10;2.63;;;10.20;99.90;;;;;;5098769;28;20698;-78
2023/05/16 05:19:47;;;;;;;12.60;2.40;;;10.20;99.90;;;;;;5097716;28;20210;-78
2023/05/16 05:22:14;;;;;;;7.93;2.50;;;10.20;99.90;;;;;;5097502;28;20197;-77
2023/05/16 05:24:43;;;;;;;9.87;2.50;;;10.20;99.90;;;;;;5090988;28;20217;-79
2023/05/16 05:27:09;;;;;;;5.60;2.70;;;10.10;99.90;;;;;;5080727;28;20648;-77
2023/05/16 05:29:36;;;;;;;12.60;3.20;;;10.10;99.90;;;;;;5097615;28;20209;-79
2023/05/16 05:32:03;;;;;;;12.73;2.80;;;10.10;99.90;;;;;;5094600;28;20633;-77
2023/05/16 05:34:30;;;;;;;11.07;2.57;;;10.20;99.90;;;;;;5077961;28;20222;-77
2023/05/16 05:36:57;;;;;;;10.17;2.63;;;10.20;99.90;;;;;;5078964;28;20261;-79
2023/05/16 05:39:24;;;;;;;11.17;2.70;;;10.10;99.90;;;;;;5097771;28;20224;-78
2023/05/16 05:41:52;;;;;;;11.57;3.20;;;10.20;99.90;;;;;;5100795;28;20217;-77
2023/05/16 05:44:19;;;;;;;7.93;2.50;;;10.20;99.90;;;;;;5095233;28;20222;-80
2023/05/16 05:46:47;;;;;;;8.13;2.50;;;10.10;99.90;;;;;;5089381;28;20206;-78
2023/05/16 05:49:13;;;;;;;9.87;2.40;;;10.20;99.90;;;;;;5103479;28;20307;-79
2023/05/16 05:51:40;;;;;;;12.40;2.67;;;10.20;99.90;;;;;;5085547;28;20230;-78
2023/05/16 05:54:07;;;;;;;8.30;2.30;;;10.10;99.90;;;;;;5082714;28;20757;-76
2023/05/16 05:56:34;;;;;;;6.00;1.77;;;10.10;99.90;;;;;;5081789;28;20202;-77
2023/05/16 05:59:03;;;;;;;8.40;2.10;;;10.10;99.90;;;;;;5082148;28;20225;-79
2023/05/16 06:01:29;;;;;;;14.87;2.57;;;10.10;99.90;;;;;;5082098;28;20700;-78
2023/05/16 06:03:56;;;;;;;9.80;2.30;;;10.10;99.90;;;;;;5081893;28;20226;-78
2023/05/16 06:06:23;;;;;;;10.70;2.83;;;10.20;99.90;;;;;;5081695;28;20224;-77
2023/05/16 06:08:50;;;;;;;11.30;3.13;;;10.20;99.90;;;;;;5081723;28;20285;-79
2023/05/16 06:11:17;;;;;;;11.77;3.40;;;10.30;99.90;;;;;;5081203;28;20198;-80
2023/05/16 06:13:44;;;;;;;11.03;2.73;;;10.40;99.90;;;;;;5081742;28;20226;-79
2023/05/16 06:16:12;;;;;;;9.10;2.20;;;10.60;99.90;;;;;;5081028;28;20202;-80
2023/05/16 06:18:39;;;;;;;9.43;1.97;;;10.60;99.90;;;;;;5080890;28;20296;-79
2023/05/16 06:21:06;;;;;;;12.67;2.40;;;10.60;99.90;;;;;;5080476;28;20311;-77
2023/05/16 06:23:33;;;;;;;13.17;2.23;;;10.70;99.90;;;;;;5080336;28;20271;-77
2023/05/16 06:26:00;;;;;;;9.70;2.33;;;10.70;99.90;;;;;;5081295;28;20209;-76
2023/05/16 06:28:26;;;;;;;13.27;1.87;;;10.60;99.90;;;;;;5082329;28;20578;-78
2023/05/16 06:30:53;;;;;;;12.57;2.13;;;10.90;99.90;;;;;;5082097;28;20293;-78
2023/05/16 06:33:22;;;;;;;8.17;1.73;;;10.70;99.90;;;;;;5080868;28;20305;-76
2023/05/16 06:35:51;;;;;;;5.93;1.40;;;10.60;99.90;;;;;;5081079;28;20212;-78
2023/05/16 06:38:19;;;;;;;8.50;1.50;;;10.60;99.90;;;;;;5081267;28;20199;-78
2023/05/16 06:40:46;;;;;;;9.23;2.50;;;10.60;99.90;;;;;;5079704;28;20222;-76
2023/05/16 06:43:13;;;;;;;8.10;1.70;;;10.70;99.90;;;;;;5080851;28;20222;-77
2023/05/16 06:45:40;;;;;;;10.83;2.20;;;10.70;99.90;;;;;;5080089;28;20206;-77
2023/05/16 06:48:08;;;;;;;7.80;1.90;;;10.80;99.90;;;;;;5079961;28;20210;-77
2023/05/16 06:50:36;;;;;;;7.93;1.73;;;10.80;99.90;;;;;;5079518;28;20220;-76
2023/05/16 06:53:03;;;;;;;9.83;1.47;;;10.90;99.90;;;;;;5078270;28;20768;-77
2023/05/16 06:55:30;;;;;;;11.20;2.50;;;10.90;99.90;;;;;;5079752;28;20202;-79
2023/05/16 06:57:57;;;;;;;9.53;1.80;;;10.80;99.90;;;;;;5079275;28;20293;-79
2023/05/16 07:00:24;;;;;;;7.80;1.77;;;11.00;99.90;;;;;;5078966;28;20213;-78
2023/05/16 07:02:52;;;;;;;10.63;2.43;;;11.10;99.90;;;;;;5078836;28;20232;-77
2023/05/16 07:05:19;;;;;;;12.23;1.90;;;11.10;99.90;;;;;;5079994;28;20198;-78
2023/05/16 07:07:48;;;;;;;11.53;2.00;;;11.30;99.90;;;;;;5079890;28;20206;-77
2023/05/16 07:10:18;;;;;;;7.20;1.57;;;11.20;99.90;;;;;;5080231;28;20266;-78
2023/05/16 07:12:44;;;;;;;10.20;1.90;;;11.20;99.90;;;;;;5079590;28;20599;-78
2023/05/16 07:15:12;;;;;;;9.47;1.57;;;11.40;99.90;;;;;;5079651;28;20688;-79
2023/05/16 07:17:38;;;;;;;6.67;1.30;;;11.70;99.90;;;;;;5078683;28;20202;-77
2023/05/16 07:20:07;;;;;;;7.23;1.47;;;11.70;99.90;;;;;;5077980;28;20743;-78
2023/05/16 07:22:34;;;;;;;5.70;1.60;;;11.60;99.90;;;;;;5078039;28;20233;-79
2023/05/16 07:25:02;;;;;;;6.23;1.63;;;11.90;99.90;;;;;;5088848;28;20268;-79
2023/05/16 07:27:30;;;;;;;7.90;1.30;;;11.90;99.90;;;;;;5096503;28;20205;-77
2023/05/16 07:29:57;;;;;;;12.03;1.70;;;11.90;99.90;;;;;;5097985;28;20213;-77
2023/05/16 07:32:24;;;;;;;10.43;1.90;;;12.00;99.90;;;;;;5098370;28;20261;-77
2023/05/16 07:34:51;;;;;;;7.87;1.63;;;12.10;99.90;;;;;;5097037;28;20205;-79
2023/05/16 07:37:19;;;;;;;8.03;1.70;;;12.00;99.90;;;;;;5099625;28;20231;-80
2023/05/16 07:39:46;;;;;;;7.00;1.57;;;11.90;99.90;;;;;;5093979;28;20198;-78
2023/05/16 07:42:14;;;;;;;4.20;1.10;;;11.80;99.90;;;;;;5076210;28;20215;-79
2023/05/16 07:44:41;;;;;;;7.10;1.40;;;11.60;99.90;;;;;;5088050;28;20263;-78
2023/05/16 07:47:07;;;;;;;8.93;1.60;;;11.60;99.90;;;;;;5100336;28;20224;-80
2023/05/16 07:49:34;;;;;;;3.53;1.37;;;11.80;99.90;;;;;;5096664;28;20201;-79
2023/05/16 07:52:01;;;;;;;7.03;1.67;;;11.90;99.90;;;;;;5099397;28;20281;-77
2023/05/16 07:54:28;;;;;;;5.73;1.33;;;12.00;99.90;;;;;;5093184;28;20236;-80
2023/05/16 07:56:55;;;;;;;5.97;1.23;;;12.00;94.10;;;;;;5078546;28;20205;-79
2023/05/16 07:59:23;;;;;;;8.97;1.63;;;12.10;1.00;;;;;;5079769;28;20238;-78
2023/05/16 08:01:50;;;;;;;5.27;0.93;;;12.30;1.00;;;;;;5080053;28;20233;-79
2023/05/16 08:04:17;;;;;;;6.27;1.20;;;12.40;1.00;;;;;;5078310;28;20234;-77
2023/05/16 08:06:44;;;;;;;4.47;1.50;;;12.30;1.00;;;;;;5078562;28;20210;-76
2023/05/16 08:09:11;;;;;;;4.97;1.30;;;12.00;1.00;;;;;;5082874;28;20575;-76
2023/05/16 08:11:38;;;;;;;4.00;1.07;;;11.90;99.90;;;;;;5098732;28;20313;-78
2023/05/16 08:14:05;;;;;;;8.77;1.10;;;11.70;1.00;;;;;;5099017;28;20301;-78
2023/05/16 08:16:33;;;;;;;5.27;1.23;;;12.10;1.00;;;;;;5098447;28;20208;-76
2023/05/16 08:19:00;;;;;;;4.97;0.93;;;12.40;1.00;;;;;;5099378;28;20288;-77
2023/05/16 08:21:27;;;;;;;6.17;1.20;;;12.30;99.90;;;;;;5103169;28;20222;-76
2023/05/16 08:23:54;;;;;;;9.03;1.47;;;12.50;99.90;;;;;;5097562;28;20228;-79
2023/05/16 08:26:21;;;;;;;6.37;1.83;;;12.70;99.90;;;;;;5094429;28;20221;-78
2023/05/16 08:28:48;;;;;;;7.50;1.40;;;12.70;99.90;;;;;;5081595;28;20900;-80
2023/05/16 08:31:15;;;;;;;10.90;1.40;;;12.70;99.90;;;;;;5078431;28;20198;-79
2023/05/16 08:33:44;;;;;;;7.13;1.40;;;13.00;99.90;;;;;;5077378;28;20237;-80
2023/05/16 08:36:10;;;;;;;6.70;1.13;;;13.10;1.00;;;;;;5078224;28;20308;-78
2023/05/16 08:38:37;;;;;;;2.90;0.93;;;13.10;1.00;;;;;;5076583;28;20213;-77
2023/05/16 08:41:05;;;;;;;6.87;1.47;;;12.70;1.00;;;;;;5078246;28;20237;-76
2023/05/16 08:43:33;;;;;;;2.07;1.10;;;13.20;1.00;;;;;;5078448;28;20249;-76
2023/05/16 08:46:01;;;;;;;5.57;1.27;;;13.30;99.90;;;;;;5077907;28;20256;-77
2023/05/16 08:48:28;;;;;;;5.93;1.33;;;13.00;1.00;;;;;;5078034;28;20591;-76
2023/05/16 08:50:57;;;;;;;5.77;1.40;;;13.20;1.00;;;;;;5077369;28;20208;-76
2023/05/16 08:53:31;;;;;;;4.00;0.97;;;13.60;99.90;;;;;;5078686;28;20226;-78
2023/05/16 08:56:00;;;;;;;3.37;0.93;;;13.60;1.00;;;;;;5077760;28;20205;-77
2023/05/16 08:58:28;;;;;;;9.80;1.83;;;13.40;99.90;;;;;;5091493;28;20242;-78
2023/05/16 09:00:56;;;;;;;5.67;1.07;;;13.00;99.90;;;;;;5095955;28;20208;-77
2023/05/16 09:03:24;;;;;;;6.20;1.40;;;13.50;99.90;;;;;;5100717;28;20222;-77
2023/05/16 09:05:51;;;;;;;6.93;1.20;;;14.50;1.00;;;;;;5099720;28;20212;-77
2023/05/16 09:08:20;;;;;;;5.30;1.30;;;14.00;20.60;;;;;;5099322;28;20232;-75
2023/05/16 09:10:46;;;;;;;5.83;1.30;;;14.40;1.00;;;;;;5096746;28;20198;-77
2023/05/16 09:13:13;;;;;;;3.17;0.90;;;14.40;1.00;;;;;;5097527;28;20717;-76
2023/05/16 09:15:40;;;;;;;2.67;0.80;;;14.30;1.00;;;;;;5097029;28;20204;-77
2023/05/16 09:18:12;;;;;;;7.00;1.47;;;15.10;1.00;;;;;;5101889;28;20208;-79
2023/05/16 09:20:45;;;;;;;5.27;1.70;;;14.80;1.00;;;;;;5086298;28;20210;-79
2023/05/16 09:23:12;;;;;;;5.63;1.37;;;14.90;1.00;;;;;;5081787;28;20226;-79
2023/05/16 09:25:40;;;;;;;8.10;1.57;;;14.80;1.00;;;;;;5082018;28;20729;-77
2023/05/16 09:28:12;;;;;;;5.63;1.40;;;14.40;1.00;;;;;;5094709;28;20216;-77
2023/05/16 09:30:45;;;;;;;9.03;1.20;;;15.20;1.00;;;;;;5102782;28;20206;-78
2023/05/16 09:33:13;;;;;;;4.70;1.10;;;15.40;99.90;;;;;;5102904;28;20579;-77
2023/05/16 09:35:40;;;;;;;5.47;1.37;;;15.60;99.90;;;;;;5103452;28;20293;-78
2023/05/16 09:38:14;;;;;;;6.67;1.73;;;15.60;99.90;;;;;;5102507;28;20216;-77
2023/05/16 09:40:44;;;;;;;3.90;1.07;;;15.50;93.00;;;;;;5101413;28;20551;-76
2023/05/16 09:43:15;;;;;;;3.90;1.47;;;15.30;1.00;;;;;;5100628;28;20225;-78
2023/05/16 09:45:46;;;;;;;5.00;1.40;;;15.30;1.00;;;;;;5099160;28;20284;-78
2023/05/16 09:48:14;;;;;;;3.00;1.13;;;15.30;44.90;;;;;;5101548;28;20209;-76
2023/05/16 09:50:46;;;;;;;4.70;1.17;;;15.70;1.00;;;;;;5101383;28;20220;-77
2023/05/16 09:53:14;;;;;;;4.40;1.33;;;16.00;1.00;;;;;;5100676;28;20241;-76
2023/05/16 09:55:42;;;;;;;3.42;1.10;;;16.40;1.00;;;;;;5094698;28;20563;-77
2023/05/16 09:58:09;;;;;;;4.30;1.03;;;16.60;1.00;;;;;;5100843;28;20652;-77
2023/05/16 10:00:36;;;;;;;3.13;0.98;;;15.90;1.00;;;;;;5092586;28;20615;-78
2023/05/16 10:03:03;;;;;;;4.35;1.33;;;15.20;1.00;;;;;;5081917;28;20230;-77
2023/05/16 10:05:32;;;;;;;6.03;1.42;;;15.50;1.00;;;;;;5080921;28;20206;-78
2023/05/16 10:07:58;;;;;;;3.92;0.90;;;16.00;1.00;;;;;;5084067;28;20292;-76
2023/05/16 10:10:27;;;;;;;2.47;0.70;;;16.00;99.90;;;;;;5096516;28;20225;-78
2023/05/16 10:12:59;;;;;;;3.08;1.42;;;15.90;99.90;;;;;;5103151;28;20216;-79
2023/05/16 10:15:27;;;;;;;5.55;1.23;;;16.30;99.90;;;;;;5101253;28;20644;-77
2023/05/16 10:17:58;;;;;;;5.53;1.13;;;16.70;99.90;;;;;;5100836;28;20205;-77
2023/05/16 10:20:26;;;;;;;2.80;0.88;;;16.50;99.90;;;;;;5082566;28;20668;-77
2023/05/16 10:22:56;;;;;;;2.63;1.20;;;16.80;99.90;;;;;;5079760;28;20226;-76
2023/05/16 10:25:28;;;;;;;2.17;0.80;;;16.40;1.00;;;;;;5086631;28;20223;-78
2023/05/16 10:27:57;;;;;;;3.35;0.90;;;16.30;1.00;;;;;;5100058;28;20297;-77
2023/05/16 10:30:25;;;;;;;5.63;1.52;;;16.30;1.00;;;;;;5102461;28;20202;-78
2023/05/16 10:32:53;;;;;;;2.88;0.80;;;15.90;1.00;;;;;;5095089;28;20222;-79
2023/05/16 10:35:20;;;;;;;4.97;1.23;;;16.30;1.00;;;;;;5083262;28;20234;-78
2023/05/16 10:37:48;;;;;;;2.67;0.85;;;16.50;1.00;;;;;;5091736;28;20254;-79
2023/05/16 10:40:15;;;;;;;3.65;1.00;;;17.00;1.00;;;;;;5103779;28;20206;-78
2023/05/16 10:42:54;;;;;;;3.75;0.93;;;17.70;1.00;;;;;;5096668;28;20290;-76
2023/05/16 10:45:23;;;;;;;4.97;1.25;;;17.80;1.00;;;;;;5082918;28;20186;-77
2023/05/16 10:47:55;;;;;;;2.67;1.00;;;18.10;1.00;;;;;;5082366;28;20232;-77
2023/05/16 10:50:32;;;;;;;3.17;1.17;;;17.30;99.90;;;;;;5082453;28;20289;-77
2023/05/16 10:53:15;;;;;;;5.60;1.73;;;17.10;99.90;;;;;;5081614;28;20679;-78
2023/05/16 10:56:03;;;;;;;4.18;1.27;;;17.50;99.90;;;;;;5096990;28;20202;-78
2023/05/16 10:58:43;;;;;;;4.45;0.98;;;17.30;99.90;;;;;;5098987;28;20212;-78
2023/05/16 11:01:23;;;;;;;5.07;1.10;;;17.80;99.90;;;;;;5100997;28;20197;-79
2023/05/16 11:04:11;;;;;;;2.85;0.77;;;18.00;99.90;;;;;;5090353;28;20225;-77
2023/05/16 11:06:55;;;;;;;3.83;1.08;;;17.80;15.60;;;;;;5095627;28;20205;-79
2023/05/16 11:09:27;;;;;;;6.07;1.13;;;16.90;1.00;;;;;;5084567;28;20237;-79
2023/05/16 11:12:02;;;;;;;3.38;1.10;;;17.20;1.00;;;;;;5095341;28;20193;-80
2023/05/16 11:14:36;;;;;;;2.33;0.90;;;17.40;1.00;;;;;;5100074;28;20224;-79
2023/05/16 11:17:08;;;;;;;2.88;1.15;;;17.40;1.00;;;;;;5082541;28;20202;-80
2023/05/16 11:19:40;;;;;;;2.28;0.80;;;17.60;1.00;;;;;;5080380;28;20202;-78
2023/05/16 11:22:08;;;;;;;3.58;1.05;;;17.70;1.00;;;;;;5077329;28;20233;-77
2023/05/16 11:24:39;;;;;;;4.32;0.88;;;17.30;1.00;;;;;;5079707;28;20225;-78
2023/05/16 11:27:06;;;;;;;3.90;1.15;;;17.80;1.00;;;;;;5080311;28;20260;-77
2023/05/16 11:29:35;;;;;;;2.35;1.02;;;18.40;1.00;;;;;;5080293;28;20267;-79
2023/05/16 11:32:04;;;;;;;2.22;1.20;;;17.80;1.00;;;;;;5079538;28;20263;-77
2023/05/16 11:34:32;;;;;;;3.33;0.90;;;17.60;99.90;;;;;;5080171;28;20228;-76
2023/05/16 11:37:01;;;;;;;2.25;0.85;;;17.90;99.90;;;;;;5079251;28;20573;-75
2023/05/16 11:39:30;;;;;;;2.67;0.85;;;18.00;99.90;;;;;;5080134;28;20257;-77
2023/05/16 11:41:57;;;;;;;3.95;1.08;;;18.00;99.90;;;;;;5079474;28;20214;-79
2023/05/16 11:44:24;;;;;;;3.33;0.82;;;18.30;99.90;;;;;;5079939;28;20246;-77
2023/05/16 11:46:51;;;;;;;3.53;1.00;;;18.10;99.90;;;;;;5080254;28;20266;-78
2023/05/16 11:49:19;;;;;;;6.32;1.20;;;18.00;99.90;;;;;;5079896;28;20656;-77
2023/05/16 11:51:46;;;;;;;3.47;1.20;;;18.30;99.90;;;;;;5078933;28;20202;-76
2023/05/16 11:54:13;;;;;;;1.92;0.80;;;17.90;99.90;;;;;;5083910;28;20321;-77
2023/05/16 11:56:41;;;;;;;4.70;1.25;;;17.80;91.20;;;;;;5096099;28;20208;-79
2023/05/16 11:59:08;;;;;;;3.80;1.15;;;17.80;77.10;;;;;;5096985;28;20236;-79
2023/05/16 12:01:36;;;;;;;4.63;1.30;;;16.90;21.00;;;;;;5095015;28;20225;-79
2023/05/16 12:04:07;;;;;;;7.53;1.88;;;17.20;91.60;;;;;;5077499;28;20692;-79
2023/05/16 12:06:36;;;;;;;5.68;1.35;;;17.90;99.90;;;;;;5079297;28;20563;-78
2023/05/16 12:09:09;;;;;;;6.43;2.63;;;18.20;57.60;;;;;;5079286;28;20293;-80
2023/05/16 12:11:37;;;;;;;2.95;1.30;;;18.30;91.20;;;;;;5097254;28;20288;-77
2023/05/16 12:14:04;;;;;;;4.18;1.00;;;17.00;1.00;;;;;;5099944;28;20282;-77
2023/05/16 12:16:31;;;;;;;6.68;1.50;;;17.50;1.00;;;;;;5098163;28;20296;-78
2023/05/16 12:18:58;;;;;;;2.95;0.95;;;17.60;1.00;;;;;;5094907;28;20201;-77
2023/05/16 12:21:25;;;;;;;1.65;1.00;;;18.20;1.00;;;;;;5105090;28;20284;-79
2023/05/16 12:23:56;;;;;;;2.03;0.95;;;17.90;1.00;;;;;;5097809;28;20213;-77
2023/05/16 12:26:29;;;;;;;4.10;1.58;;;17.30;1.00;;;;;;5096448;28;20193;-77
2023/05/16 12:28:59;;;;;;;2.45;0.93;;;17.40;1.00;;;;;;5099092;28;20194;-80
2023/05/16 12:31:26;;;;;;;1.90;0.90;;;18.00;1.00;;;;;;5098027;28;20200;-79
2023/05/16 12:33:54;;;;;;;4.53;0.90;;;17.40;1.00;;;;;;5097720;28;20218;-77
2023/05/16 12:36:21;;;;;;;3.17;1.23;;;17.50;1.00;;;;;;5098465;28;20208;-78
2023/05/16 12:38:48;;;;;;;4.72;1.08;;;18.00;1.00;;;;;;5100771;28;20210;-77
2023/05/16 12:41:20;;;;;;;2.38;0.82;;;18.10;1.00;;;;;;5100487;28;20240;-78
2023/05/16 12:43:47;;;;;;;2.55;0.90;;;18.30;1.00;;;;;;5100793;28;20235;-78
2023/05/16 12:46:14;;;;;;;2.95;1.00;;;18.30;1.00;;;;;;5089776;28;20232;-77
2023/05/16 12:48:42;;;;;;;2.75;0.82;;;18.00;1.00;;;;;;5096345;28;20213;-79
2023/05/16 12:51:13;;;;;;;2.85;0.80;;;18.10;1.00;;;;;;5100332;28;20563;-77